Time;durP1;ratioP1;P1;durP2;ratioP2;P2;SDS_P1;SDS_P2;PMS_P1;PMS_P2;Temp;Humidity;BMP_temperature;BMP_pressure;BME280_temperature;BME280_humidity;BME280_pressure;Samples;Min_cycle;Max_cycle;Signal;HPM_P1;HPM_P2
2024/04/05 00:01:51;;;;;;;0.00;0.00;;;;;;;16.06;64.08;100100.06;4456496;31;34711;-85
2024/04/05 00:04:18;;;;;;;0.10;0.10;;;;;;;16.11;63.69;100095.31;4456727;31;32200;-85
2024/04/05 00:06:45;;;;;;;0.85;0.55;;;;;;;15.70;64.94;100086.31;4459022;31;32457;-84
2024/04/05 00:09:12;;;;;;;0.62;0.52;;;;;;;15.44;66.47;100107.34;4478186;31;33416;-84
2024/04/05 00:11:39;;;;;;;0.25;0.25;;;;;;;15.34;67.08;100114.16;4474502;31;32665;-85
2024/04/05 00:14:06;;;;;;;0.30;0.30;;;;;;;15.52;66.45;100105.06;4478990;31;33372;-85
2024/04/05 00:16:32;;;;;;;0.00;0.00;;;;;;;15.45;67.08;100097.53;4457267;31;32767;-87
2024/04/05 00:19:00;;;;;;;0.90;0.47;;;;;;;15.46;67.28;100097.44;4476290;31;33504;-86
2024/04/05 00:21:26;;;;;;;1.90;1.08;;;;;;;15.53;67.32;100090.81;4472353;31;33959;-86
2024/04/05 00:23:54;;;;;;;1.10;0.20;;;;;;;15.53;67.76;100084.66;4480642;31;33966;-86
2024/04/05 00:26:21;;;;;;;0.57;0.32;;;;;;;15.63;67.02;100085.81;4486148;31;34334;-86
2024/04/05 00:28:48;;;;;;;0.00;0.00;;;;;;;15.74;66.49;100086.03;4471212;31;33294;-86
2024/04/05 00:31:14;;;;;;;0.00;0.00;;;;;;;15.81;66.02;100083.88;4474034;31;33386;-85
2024/04/05 00:33:41;;;;;;;0.20;0.15;;;;;;;15.68;66.64;100066.94;4453699;31;32667;-85
2024/04/05 00:36:11;;;;;;;0.37;0.37;;;;;;;15.57;67.30;100063.09;4473580;31;32772;-85
2024/04/05 00:38:37;;;;;;;0.10;0.10;;;;;;;15.51;68.24;100051.94;4474311;31;33442;-85
2024/04/05 00:41:04;;;;;;;0.00;0.00;;;;;;;15.58;67.50;100056.81;4442017;31;35522;-86
2024/04/05 00:43:30;;;;;;;0.00;0.00;;;;;;;15.61;67.74;100055.75;4469616;31;33471;-86
2024/04/05 00:45:57;;;;;;;0.00;0.00;;;;;;;15.64;67.52;100050.28;4465755;31;32617;-86
2024/04/05 00:48:24;;;;;;;0.10;0.10;;;;;;;15.55;67.80;100045.47;4460008;31;32932;-86
2024/04/05 00:50:51;;;;;;;0.00;0.00;;;;;;;15.72;67.27;100042.69;4467756;31;33706;-86
2024/04/05 00:53:28;;;;;;;0.00;0.00;;;;;;;15.81;67.09;100044.78;4458850;31;33094;-86
2024/04/05 00:55:58;;;;;;;0.00;0.00;;;;;;;15.74;67.11;100035.44;4466940;31;34160;-86
2024/04/05 00:58:25;;;;;;;0.10;0.10;;;;;;;15.90;66.25;100027.37;4472053;31;34590;-87
2024/04/05 01:00:53;;;;;;;0.00;0.00;;;;;;;15.79;66.64;100017.38;4471986;31;32951;-88
2024/04/05 01:03:20;;;;;;;0.00;0.00;;;;;;;15.76;66.59;100006.06;4471847;31;34228;-88
2024/04/05 01:05:47;;;;;;;0.00;0.00;;;;;;;15.70;66.60;100001.12;4457088;31;32360;-88
2024/04/05 01:08:14;;;;;;;0.25;0.13;;;;;;;15.71;66.77;100006.34;4482345;31;34110;-89
2024/04/05 01:10:41;;;;;;;0.00;0.00;;;;;;;15.72;66.22;100007.22;4474184;31;34098;-89
2024/04/05 01:13:10;;;;;;;0.00;0.00;;;;;;;15.69;66.22;100020.72;4475438;31;32953;-89
2024/04/05 01:15:37;;;;;;;0.08;0.08;;;;;;;15.69;66.17;100032.22;4472688;31;33262;-89
2024/04/05 01:18:06;;;;;;;0.00;0.00;;;;;;;15.49;66.30;100036.06;4458642;31;34006;-89
2024/04/05 01:20:34;;;;;;;0.20;0.20;;;;;;;15.44;66.26;100030.16;4453281;31;33182;-86
2024/04/05 01:23:02;;;;;;;0.00;0.00;;;;;;;15.31;66.38;100021.19;4477304;31;34249;-87
2024/04/05 01:25:30;;;;;;;0.17;0.17;;;;;;;15.61;65.46;100032.63;4462891;31;34262;-84
2024/04/05 01:28:03;;;;;;;0.80;0.40;;;;;;;15.92;63.59;100036.13;4471652;31;34467;-83
2024/04/05 01:30:30;;;;;;;0.03;0.03;;;;;;;15.58;63.94;100043.50;4452708;31;34583;-84
2024/04/05 01:32:58;;;;;;;0.00;0.00;;;;;;;15.32;65.28;100038.88;4468455;31;33518;-83
2024/04/05 01:35:26;;;;;;;0.00;0.00;;;;;;;15.20;65.35;100039.59;4485480;31;33829;-84
2024/04/05 01:37:54;;;;;;;0.13;0.13;;;;;;;15.33;65.16;100048.56;4458568;31;34661;-84
2024/04/05 01:40:20;;;;;;;0.08;0.08;;;;;;;15.00;65.84;100048.72;4478108;31;33524;-84
2024/04/05 01:42:47;;;;;;;0.20;0.20;;;;;;;15.08;65.29;100042.03;4471287;31;33914;-84
2024/04/05 01:45:14;;;;;;;0.00;0.00;;;;;;;15.12;65.20;100045.38;4469631;31;35542;-84
2024/04/05 01:47:40;;;;;;;0.25;0.25;;;;;;;15.03;64.98;100044.09;4473082;31;31670;-84
2024/04/05 01:50:07;;;;;;;0.22;0.22;;;;;;;14.73;65.80;100046.72;4470701;31;32964;-84
2024/04/05 01:52:34;;;;;;;0.00;0.00;;;;;;;14.92;64.97;100043.03;4458008;31;33912;-84
2024/04/05 01:55:00;;;;;;;0.88;0.43;;;;;;;14.75;65.53;100038.66;4486984;31;33850;-85
2024/04/05 01:57:27;;;;;;;0.00;0.00;;;;;;;14.76;65.22;100040.37;4460569;31;34005;-85
2024/04/05 01:59:55;;;;;;;0.00;0.00;;;;;;;14.72;65.18;100033.53;4474900;31;34104;-85
2024/04/05 02:02:22;;;;;;;0.22;0.22;;;;;;;14.79;64.56;100040.19;4479767;31;33543;-85
2024/04/05 02:04:52;;;;;;;0.13;0.10;;;;;;;14.62;65.10;100032.31;4465613;31;34171;-85
2024/04/05 02:07:26;;;;;;;0.05;0.05;;;;;;;14.64;64.72;100033.09;4471042;31;33240;-85
2024/04/05 02:09:53;;;;;;;2.22;0.22;;;;;;;14.42;65.24;100046.69;4468261;31;33763;-85
2024/04/05 02:12:21;;;;;;;0.60;0.30;;;;;;;14.33;65.57;100042.75;4466283;31;33711;-85
2024/04/05 02:14:48;;;;;;;0.00;0.00;;;;;;;14.51;64.76;100047.06;4468656;31;34096;-85
2024/04/05 02:17:15;;;;;;;0.43;0.43;;;;;;;14.51;64.70;100052.38;4470652;31;35205;-85
2024/04/05 02:19:42;;;;;;;0.47;0.47;;;;;;;14.51;64.54;100055.03;4472889;31;33612;-84
2024/04/05 02:22:08;;;;;;;0.10;0.10;;;;;;;14.52;63.09;100059.41;4478082;31;32684;-84
2024/04/05 02:24:35;;;;;;;0.00;0.00;;;;;;;14.33;63.82;100058.69;4450857;31;34794;-84
2024/04/05 02:27:03;;;;;;;0.00;0.00;;;;;;;14.17;64.18;100063.13;4473087;31;33186;-84
2024/04/05 02:29:31;;;;;;;0.15;0.15;;;;;;;14.07;64.77;100068.09;4451176;31;34414;-84
2024/04/05 02:31:58;;;;;;;0.20;0.20;;;;;;;14.23;64.41;100071.59;4462555;31;34367;-84
2024/04/05 02:34:24;;;;;;;0.00;0.00;;;;;;;14.30;62.89;100069.50;4467787;31;33203;-84
2024/04/05 02:36:51;;;;;;;0.00;0.00;;;;;;;14.12;63.85;100071.34;4464952;31;33854;-85
2024/04/05 02:39:18;;;;;;;0.00;0.00;;;;;;;14.14;64.07;100074.75;4470490;31;34721;-84
2024/04/05 02:41:46;;;;;;;0.00;0.00;;;;;;;14.05;64.38;100086.75;4464638;31;31848;-84
2024/04/05 02:44:13;;;;;;;0.00;0.00;;;;;;;13.99;63.91;100087.06;4469883;31;34090;-85
2024/04/05 02:46:41;;;;;;;0.00;0.00;;;;;;;13.86;63.99;100080.69;4455213;31;34653;-85
2024/04/05 02:49:07;;;;;;;0.00;0.00;;;;;;;13.76;64.93;100087.41;4469464;31;33220;-85
2024/04/05 02:51:34;;;;;;;0.00;0.00;;;;;;;13.80;63.90;100092.47;4485506;31;33538;-85
2024/04/05 02:54:02;;;;;;;0.00;0.00;;;;;;;13.63;64.90;100095.19;4473978;31;32622;-85
2024/04/05 02:56:29;;;;;;;0.50;0.37;;;;;;;13.82;63.64;100098.59;4491832;31;34362;-85
2024/04/05 02:58:58;;;;;;;6.60;0.45;;;;;;;13.69;64.16;100092.19;4483708;31;34266;-86
2024/04/05 03:01:25;;;;;;;0.00;0.00;;;;;;;13.63;64.76;100102.28;4455036;31;33701;-86
2024/04/05 03:03:52;;;;;;;0.20;0.20;;;;;;;13.64;64.90;100096.03;4457715;31;32410;-85
2024/04/05 03:06:19;;;;;;;0.20;0.10;;;;;;;13.65;64.52;100103.03;4469266;31;34255;-86
2024/04/05 03:08:47;;;;;;;0.30;0.30;;;;;;;13.54;64.86;100109.75;4485415;31;34581;-86
2024/04/05 03:11:13;;;;;;;0.10;0.10;;;;;;;13.34;65.25;100115.22;4473642;31;33546;-85
2024/04/05 03:13:47;;;;;;;0.00;0.00;;;;;;;13.44;64.41;100115.63;4468633;31;33178;-84
2024/04/05 03:16:14;;;;;;;0.00;0.00;;;;;;;13.42;64.46;100120.97;4472449;31;33461;-84
2024/04/05 03:18:41;;;;;;;0.10;0.10;;;;;;;13.35;64.83;100119.59;4470650;31;34678;-84
2024/04/05 03:21:08;;;;;;;0.00;0.00;;;;;;;13.38;64.70;100122.06;4478526;31;32223;-85
2024/04/05 03:23:34;;;;;;;0.00;0.00;;;;;;;13.29;64.89;100117.22;4462804;31;34082;-85
2024/04/05 03:26:01;;;;;;;0.00;0.00;;;;;;;13.29;65.01;100117.22;4484885;31;33657;-84
2024/04/05 03:28:27;;;;;;;0.43;0.43;;;;;;;13.19;65.26;100135.34;4470556;31;33417;-84
2024/04/05 03:30:54;;;;;;;0.00;0.00;;;;;;;13.11;65.17;100134.03;4467831;31;34233;-84
2024/04/05 03:33:21;;;;;;;0.10;0.10;;;;;;;12.94;65.27;100135.69;4464446;31;33546;-85
2024/04/05 03:35:47;;;;;;;0.00;0.00;;;;;;;13.02;65.00;100151.25;4470710;31;33985;-85
2024/04/05 03:38:14;;;;;;;0.32;0.28;;;;;;;13.04;65.25;100155.50;4443817;31;32727;-85
2024/04/05 03:40:41;;;;;;;0.15;0.00;;;;;;;13.06;64.81;100156.31;4470610;31;33670;-85
2024/04/05 03:43:08;;;;;;;0.10;0.10;;;;;;;12.93;65.24;100154.31;4456381;31;33476;-85
2024/04/05 03:45:35;;;;;;;0.50;0.32;;;;;;;12.95;64.90;100155.09;4452916;31;32931;-85
2024/04/05 03:48:01;;;;;;;0.00;0.00;;;;;;;12.89;65.02;100153.59;4468674;31;34374;-85
2024/04/05 03:50:29;;;;;;;0.00;0.00;;;;;;;12.74;65.05;100147.25;4475878;31;32632;-85
2024/04/05 03:52:56;;;;;;;0.32;0.32;;;;;;;13.12;63.67;100162.25;4459426;31;33980;-88
2024/04/05 03:55:23;;;;;;;0.00;0.00;;;;;;;12.68;65.14;100167.88;4486106;31;33458;-88
2024/04/05 03:57:52;;;;;;;0.10;0.10;;;;;;;12.61;65.83;100166.44;4459869;31;33448;-87
2024/04/05 04:00:21;;;;;;;0.00;0.00;;;;;;;12.73;65.31;100168.53;4461100;31;32241;-87
2024/04/05 04:02:52;;;;;;;0.10;0.10;;;;;;;12.65;65.53;100168.00;4459822;31;34673;-87
2024/04/05 04:05:19;;;;;;;0.00;0.00;;;;;;;12.61;65.96;100171.72;4480005;31;33422;-87
2024/04/05 04:07:46;;;;;;;0.08;0.08;;;;;;;12.66;65.78;100165.28;4487185;31;34701;-87
2024/04/05 04:10:13;;;;;;;0.37;0.37;;;;;;;12.43;66.36;100155.75;4474283;31;34843;-87
2024/04/05 04:12:40;;;;;;;0.00;0.00;;;;;;;12.64;65.40;100161.00;4471658;31;32867;-87
2024/04/05 04:15:11;;;;;;;0.10;0.10;;;;;;;12.57;65.75;100160.41;4475951;31;33076;-87
2024/04/05 04:17:38;;;;;;;0.03;0.03;;;;;;;12.56;65.76;100164.00;4455692;31;33253;-87
2024/04/05 04:20:06;;;;;;;0.43;0.43;;;;;;;12.48;65.97;100166.13;4474628;31;32567;-88
2024/04/05 04:22:33;;;;;;;0.45;0.45;;;;;;;12.45;65.79;100174.22;4471746;31;32676;-87
2024/04/05 04:25:00;;;;;;;0.00;0.00;;;;;;;12.23;66.46;100171.69;4473014;31;34455;-87
2024/04/05 04:27:27;;;;;;;0.03;0.03;;;;;;;12.52;65.63;100175.66;4464028;31;33881;-87
2024/04/05 04:29:58;;;;;;;0.00;0.00;;;;;;;12.57;65.24;100182.47;4470390;31;32500;-88
2024/04/05 04:32:25;;;;;;;0.08;0.08;;;;;;;12.62;64.84;100174.28;4457744;31;34643;-86
2024/04/05 04:34:52;;;;;;;0.17;0.17;;;;;;;12.63;64.79;100180.44;4474309;31;32602;-85
2024/04/05 04:37:20;;;;;;;0.00;0.00;;;;;;;12.53;64.94;100185.31;4476581;31;33105;-85
2024/04/05 04:39:47;;;;;;;0.00;0.00;;;;;;;12.60;65.14;100177.97;4461539;31;35061;-84
2024/04/05 04:42:13;;;;;;;0.00;0.00;;;;;;;12.73;64.17;100174.69;4473927;31;32476;-84
2024/04/05 04:44:40;;;;;;;0.00;0.00;;;;;;;12.34;65.41;100180.00;4469895;31;33210;-85
2024/04/05 04:47:08;;;;;;;0.17;0.17;;;;;;;12.49;64.90;100186.41;4469873;32;33334;-85
2024/04/05 04:49:35;;;;;;;0.00;0.00;;;;;;;12.56;64.75;100186.03;4466478;31;33302;-85
2024/04/05 04:52:02;;;;;;;0.00;0.00;;;;;;;12.57;64.54;100185.09;4475954;31;33583;-85
2024/04/05 04:54:29;;;;;;;0.10;0.10;;;;;;;12.45;65.20;100190.97;4453401;31;34301;-85
2024/04/05 04:56:55;;;;;;;0.25;0.25;;;;;;;12.45;64.92;100190.97;4474687;31;32805;-85
2024/04/05 04:59:28;;;;;;;0.10;0.08;;;;;;;12.55;65.05;100191.41;4481086;31;32040;-85
2024/04/05 05:01:56;;;;;;;0.62;0.17;;;;;;;12.60;65.50;100186.78;4488456;31;34613;-85
2024/04/05 05:04:22;;;;;;;0.13;0.13;;;;;;;12.91;63.64;100180.88;4466408;31;32726;-86
2024/04/05 05:06:50;;;;;;;0.45;0.45;;;;;;;12.43;65.62;100179.56;4465748;31;33245;-85
2024/04/05 05:09:17;;;;;;;0.65;0.65;;;;;;;12.48;66.01;100188.16;4472870;31;35458;-85
2024/04/05 05:11:45;;;;;;;0.00;0.00;;;;;;;12.98;64.79;100190.28;4465653;31;33849;-85
2024/04/05 05:14:11;;;;;;;0.10;0.10;;;;;;;13.35;64.50;100191.19;4466839;31;33082;-85
2024/04/05 05:16:38;;;;;;;0.00;0.00;;;;;;;13.23;65.25;100203.25;4457399;31;35275;-85
2024/04/05 05:19:07;;;;;;;0.20;0.20;;;;;;;13.09;66.17;100205.66;4462471;31;33782;-84
2024/04/05 05:21:35;;;;;;;0.00;0.00;;;;;;;13.38;65.97;100204.28;4476170;31;32397;-85
2024/04/05 05:24:02;;;;;;;0.00;0.00;;;;;;;13.47;66.14;100213.59;4491565;31;33926;-85
2024/04/05 05:26:28;;;;;;;0.00;0.00;;;;;;;13.54;66.07;100218.53;4469891;31;34332;-85
2024/04/05 05:28:55;;;;;;;0.52;0.37;;;;;;;13.20;67.18;100214.00;4470507;31;32762;-85
2024/04/05 05:31:22;;;;;;;0.10;0.10;;;;;;;13.18;67.68;100220.28;4449090;31;32457;-85
2024/04/05 05:33:49;;;;;;;1.25;0.80;;;;;;;13.41;67.14;100228.03;4472269;31;33790;-84
2024/04/05 05:36:16;;;;;;;0.45;0.43;;;;;;;13.86;67.46;100228.47;4467968;31;34195;-84
2024/04/05 05:38:43;;;;;;;0.15;0.15;;;;;;;13.91;67.69;100216.72;4452236;31;32385;-84
2024/04/05 05:41:09;;;;;;;0.00;0.00;;;;;;;14.02;67.86;100219.66;4477386;31;33120;-85
2024/04/05 05:43:36;;;;;;;0.10;0.10;;;;;;;13.77;68.63;100228.03;4484640;31;34665;-85
2024/04/05 05:46:05;;;;;;;0.77;0.47;;;;;;;13.79;68.69;100236.75;4472958;31;34935;-85
2024/04/05 05:48:32;;;;;;;0.00;0.00;;;;;;;13.73;68.81;100233.56;4473923;31;34026;-85
2024/04/05 05:50:59;;;;;;;0.05;0.05;;;;;;;13.67;69.35;100237.34;4475137;31;32936;-85
2024/04/05 05:53:26;;;;;;;0.20;0.20;;;;;;;13.68;69.26;100244.41;4464621;32;34074;-85
2024/04/05 05:55:53;;;;;;;0.10;0.10;;;;;;;14.24;68.32;100231.81;4439869;32;32765;-85
2024/04/05 05:58:19;;;;;;;0.00;0.00;;;;;;;14.60;67.77;100243.22;4448455;32;32200;-85
2024/04/05 06:00:47;;;;;;;1.65;0.82;;;;;;;14.67;68.09;100240.22;4440364;32;35544;-87
2024/04/05 06:03:14;;;;;;;0.00;0.00;;;;;;;14.90;67.86;100245.16;4445891;32;34461;-88
2024/04/05 06:05:49;;;;;;;0.28;0.28;;;;;;;14.85;68.09;100248.06;4447887;32;34408;-88
2024/04/05 06:08:16;;;;;;;0.13;0.13;;;;;;;15.01;68.12;100247.25;4452692;32;32865;-86
2024/04/05 06:10:42;;;;;;;0.28;0.15;;;;;;;14.99;68.81;100244.66;4456788;32;33177;-86
2024/04/05 06:13:09;;;;;;;0.37;0.37;;;;;;;14.79;69.51;100250.22;4456299;32;33780;-85
2024/04/05 06:15:36;;;;;;;1.83;0.82;;;;;;;14.92;69.72;100248.59;4443108;32;34797;-85
2024/04/05 06:18:03;;;;;;;0.15;0.15;;;;;;;15.16;68.78;100250.87;4455033;32;30533;-85
2024/04/05 06:20:29;;;;;;;0.10;0.10;;;;;;;14.79;69.24;100244.88;4455268;32;32748;-85
2024/04/05 06:22:56;;;;;;;0.10;0.10;;;;;;;14.80;70.03;100250.13;4433747;32;34517;-85
2024/04/05 06:25:23;;;;;;;0.25;0.25;;;;;;;15.39;69.11;100258.41;4447750;32;32241;-85
2024/04/05 06:27:50;;;;;;;1.65;0.62;;;;;;;15.67;68.74;100254.22;4442216;31;32144;-85
2024/04/05 06:30:17;;;;;;;0.00;0.00;;;;;;;15.52;69.19;100258.56;4451410;32;34495;-86
2024/04/05 06:32:43;;;;;;;0.50;0.50;;;;;;;15.91;68.63;100265.25;4451974;32;34352;-85
2024/04/05 06:35:10;;;;;;;1.05;0.95;;;;;;;16.26;67.66;100257.84;4463452;32;34715;-87
2024/04/05 06:37:38;;;;;;;0.40;0.40;;;;;;;16.45;67.37;100261.09;4455905;32;32148;-86
2024/04/05 06:40:05;;;;;;;0.25;0.25;;;;;;;16.67;67.24;100260.66;4444747;32;35327;-85
2024/04/05 06:42:32;;;;;;;0.20;0.20;;;;;;;16.85;66.47;100259.56;4454046;32;34252;-86
2024/04/05 06:44:59;;;;;;;1.87;0.95;;;;;;;16.97;65.85;100257.91;4454741;32;34726;-86
2024/04/05 06:47:25;;;;;;;0.32;0.32;;;;;;;17.11;64.26;100259.72;4456582;32;32181;-86
2024/04/05 06:49:52;;;;;;;0.30;0.30;;;;;;;17.19;64.36;100261.91;4453230;32;32386;-85
2024/04/05 06:52:19;;;;;;;0.10;0.10;;;;;;;17.25;64.41;100261.50;4441526;32;34792;-86
2024/04/05 06:54:48;;;;;;;0.80;0.68;;;;;;;16.70;65.00;100270.25;4455914;32;32684;-85
2024/04/05 06:57:14;;;;;;;0.95;0.75;;;;;;;16.77;64.98;100261.84;4453579;31;32283;-85
2024/04/05 06:59:41;;;;;;;0.98;0.30;;;;;;;17.40;64.32;100258.69;4455192;32;34076;-87
2024/04/05 07:02:08;;;;;;;0.20;0.20;;;;;;;17.69;62.80;100263.09;4456035;32;32560;-87
2024/04/05 07:04:35;;;;;;;0.10;0.10;;;;;;;17.54;63.37;100263.16;4455078;32;33746;-88
2024/04/05 07:07:01;;;;;;;0.98;0.28;;;;;;;17.75;60.31;100260.03;4442807;32;32302;-87
2024/04/05 07:09:29;;;;;;;0.22;0.20;;;;;;;17.94;61.29;100263.22;4456170;31;32753;-87
2024/04/05 07:11:58;;;;;;;0.30;0.30;;;;;;;18.27;62.78;100259.22;4457147;32;33520;-88
2024/04/05 07:14:25;;;;;;;0.25;0.25;;;;;;;18.37;61.96;100263.84;4434301;32;33311;-87
2024/04/05 07:16:52;;;;;;;0.50;0.50;;;;;;;18.41;56.66;100264.47;4432408;32;32452;-86
2024/04/05 07:19:19;;;;;;;0.00;0.00;;;;;;;18.28;58.28;100266.31;4478458;32;33851;-85
2024/04/05 07:21:47;;;;;;;1.08;0.98;;;;;;;18.05;59.17;100273.19;4440943;32;34556;-86
2024/04/05 07:24:14;;;;;;;2.45;1.35;;;;;;;18.32;57.56;100260.59;4455620;32;32763;-87
2024/04/05 07:26:44;;;;;;;0.00;0.00;;;;;;;18.47;56.89;100264.06;4454581;32;32085;-85
2024/04/05 07:29:11;;;;;;;0.22;0.15;;;;;;;18.62;54.85;100257.66;4468711;32;34767;-86
2024/04/05 07:31:38;;;;;;;0.55;0.55;;;;;;;18.54;54.09;100268.03;4454894;32;33325;-86
2024/04/05 07:34:05;;;;;;;0.08;0.05;;;;;;;18.63;55.18;100262.03;4442336;32;32752;-86
2024/04/05 07:36:33;;;;;;;0.00;0.00;;;;;;;19.02;54.86;100264.72;4442597;32;32535;-86
2024/04/05 07:39:00;;;;;;;0.13;0.13;;;;;;;19.04;54.82;100266.31;4454304;32;33516;-85
2024/04/05 07:41:27;;;;;;;0.65;0.37;;;;;;;19.17;53.91;100269.81;4460918;32;33093;-85
2024/04/05 07:43:54;;;;;;;0.35;0.15;;;;;;;19.12;52.68;100273.78;4455126;32;33323;-86
2024/04/05 07:46:20;;;;;;;0.37;0.10;;;;;;;19.48;53.53;100272.97;4440879;32;32575;-86
2024/04/05 07:48:48;;;;;;;0.00;0.00;;;;;;;19.24;52.20;100272.91;4442443;32;33603;-86
2024/04/05 07:51:16;;;;;;;0.75;0.20;;;;;;;19.37;52.19;100275.53;4441330;32;33328;-86
2024/04/05 07:53:44;;;;;;;0.10;0.10;;;;;;;19.90;51.85;100273.47;4454345;32;32732;-86
2024/04/05 07:56:12;;;;;;;0.00;0.00;;;;;;;19.91;50.94;100275.16;4453132;32;34263;-85
2024/04/05 07:58:39;;;;;;;0.00;0.00;;;;;;;19.94;50.10;100270.44;4447135;32;35143;-85
2024/04/05 08:01:07;;;;;;;0.10;0.10;;;;;;;20.10;50.40;100274.63;4454831;32;33993;-85
2024/04/05 08:03:35;;;;;;;0.00;0.00;;;;;;;20.46;49.25;100276.31;4465002;32;33040;-86
2024/04/05 08:06:02;;;;;;;0.10;0.10;;;;;;;20.20;49.46;100264.91;4468079;32;34050;-85
2024/04/05 08:08:29;;;;;;;2.92;0.22;;;;;;;20.43;48.62;100268.50;4442338;32;32439;-85
2024/04/05 08:11:03;;;;;;;0.55;0.52;;;;;;;20.03;50.01;100268.00;4468378;32;35198;-85
2024/04/05 08:13:30;;;;;;;0.03;0.03;;;;;;;20.30;49.73;100271.28;4457617;32;32559;-86
2024/04/05 08:15:56;;;;;;;0.35;0.32;;;;;;;20.54;47.98;100262.34;4441456;32;35200;-86
2024/04/05 08:18:23;;;;;;;0.43;0.43;;;;;;;20.69;48.57;100272.72;4442585;32;32819;-86
2024/04/05 08:20:50;;;;;;;0.00;0.00;;;;;;;21.03;48.84;100267.41;4441596;32;32618;-85
2024/04/05 08:23:17;;;;;;;1.08;0.77;;;;;;;21.22;47.24;100270.31;4455415;32;34388;-86
2024/04/05 08:25:44;;;;;;;0.00;0.00;;;;;;;21.43;47.03;100277.63;4454750;32;32787;-86
2024/04/05 08:28:10;;;;;;;0.15;0.15;;;;;;;21.93;45.65;100269.91;4454233;32;32986;-86
2024/04/05 08:30:37;;;;;;;0.57;0.32;;;;;;;21.65;45.68;100266.84;4470341;32;32573;-86
2024/04/05 08:33:05;;;;;;;0.00;0.00;;;;;;;21.56;46.87;100270.28;4444098;32;34020;-86
2024/04/05 08:35:32;;;;;;;0.00;0.00;;;;;;;21.82;45.04;100272.66;4456769;32;32520;-86
2024/04/05 08:38:03;;;;;;;0.60;0.30;;;;;;;21.55;44.64;100276.62;4443775;32;32582;-86
2024/04/05 08:40:29;;;;;;;0.10;0.10;;;;;;;21.73;43.95;100271.56;4442700;32;33313;-86
2024/04/05 08:43:01;;;;;;;0.08;0.08;;;;;;;22.06;44.34;100267.91;4443562;32;33315;-86
2024/04/05 08:45:30;;;;;;;0.10;0.10;;;;;;;22.07;43.31;100274.97;4458179;32;34368;-86
2024/04/05 08:48:03;;;;;;;0.03;0.03;;;;;;;21.76;44.08;100270.47;4470808;32;33064;-86
2024/04/05 08:50:31;;;;;;;0.20;0.13;;;;;;;22.17;44.10;100267.00;4456191;32;34738;-86
2024/04/05 08:52:58;;;;;;;0.40;0.40;;;;;;;22.40;42.96;100267.75;4431326;32;33322;-86
2024/04/05 08:55:25;;;;;;;0.17;0.17;;;;;;;22.74;41.75;100263.00;4444756;32;33797;-86
2024/04/05 08:57:55;;;;;;;0.10;0.10;;;;;;;22.19;42.70;100271.28;4443962;32;34175;-86
2024/04/05 09:00:24;;;;;;;0.75;0.13;;;;;;;22.62;44.57;100277.53;4470293;31;32684;-86
2024/04/05 09:02:53;;;;;;;0.50;0.50;;;;;;;22.36;43.14;100272.56;4444491;32;33132;-86
2024/04/05 09:05:20;;;;;;;0.47;0.47;;;;;;;22.74;42.29;100271.06;4444216;32;34326;-86
2024/04/05 09:07:46;;;;;;;0.00;0.00;;;;;;;22.93;41.79;100265.84;4470093;32;33226;-86
2024/04/05 09:10:19;;;;;;;0.00;0.00;;;;;;;22.56;41.47;100262.78;4457886;32;33014;-87
2024/04/05 09:12:52;;;;;;;0.00;0.00;;;;;;;22.55;41.31;100261.06;4444041;32;33266;-85
2024/04/05 09:15:24;;;;;;;3.30;0.10;;;;;;;22.67;41.39;100262.69;4456671;32;32666;-86
2024/04/05 09:17:54;;;;;;;0.00;0.00;;;;;;;23.12;40.51;100264.19;4435483;32;32680;-87
2024/04/05 09:20:25;;;;;;;0.00;0.00;;;;;;;23.32;40.62;100267.81;4458516;31;33687;-86
2024/04/05 09:23:04;;;;;;;0.17;0.17;;;;;;;22.85;41.54;100271.00;4426675;31;32297;-86
2024/04/05 09:25:38;;;;;;;0.08;0.08;;;;;;;23.04;40.62;100277.50;4465801;31;34554;-86
2024/04/05 09:28:16;;;;;;;1.25;0.43;;;;;;;23.08;39.34;100277.09;4451002;31;32942;-87
2024/04/05 09:30:46;;;;;;;0.47;0.30;;;;;;;22.68;40.79;100277.84;4455915;32;33258;-86
2024/04/05 09:33:19;;;;;;;0.10;0.10;;;;;;;22.59;42.02;100278.63;4441903;32;34997;-86
2024/04/05 09:35:47;;;;;;;0.85;0.32;;;;;;;22.46;41.24;100283.41;4456605;32;34015;-86
2024/04/05 09:38:15;;;;;;;0.30;0.08;;;;;;;22.81;42.01;100282.19;4443802;32;33178;-86
2024/04/05 09:40:42;;;;;;;0.50;0.40;;;;;;;23.10;40.30;100271.56;4469511;32;32520;-86
2024/04/05 09:43:09;;;;;;;0.73;0.37;;;;;;;22.88;40.88;100277.94;4470115;32;34845;-86
2024/04/05 09:45:40;;;;;;;0.20;0.20;;;;;;;23.20;40.11;100277.84;4470674;32;34366;-87
2024/04/05 09:48:08;;;;;;;0.15;0.15;;;;;;;23.41;40.96;100278.63;4457270;32;33704;-86
2024/04/05 09:50:35;;;;;;;0.08;0.08;;;;;;;22.99;40.09;100281.44;4457079;32;36373;-86
2024/04/05 09:53:04;;;;;;;0.00;0.00;;;;;;;22.70;39.99;100281.28;4441171;32;35223;-86
2024/04/05 09:55:37;;;;;;;0.10;0.10;;;;;;;22.93;41.08;100275.72;4453607;32;32845;-86
2024/04/05 09:58:07;;;;;;;0.05;0.05;;;;;;;23.03;39.00;100279.34;4428165;32;35305;-86
2024/04/05 10:00:36;;;;;;;6.22;0.35;;;;;;;23.22;40.46;100275.88;4454033;32;33894;-86
2024/04/05 10:03:05;;;;;;;0.75;0.30;;;;;;;23.44;39.96;100264.84;4445668;32;34104;-87
2024/04/05 10:05:33;;;;;;;0.17;0.10;;;;;;;23.43;39.01;100268.56;4454845;32;33640;-86
2024/04/05 10:08:10;;;;;;;0.00;0.00;;;;;;;23.39;39.60;100263.56;4434882;32;32457;-86
2024/04/05 10:10:38;;;;;;;0.60;0.20;;;;;;;23.45;37.62;100260.31;4454222;32;33707;-86
2024/04/05 10:13:23;;;;;;;0.00;0.00;;;;;;;23.57;39.27;100258.38;4440434;32;32788;-86
2024/04/05 10:15:59;;;;;;;0.00;0.00;;;;;;;23.39;39.04;100261.72;4428630;32;33281;-86
2024/04/05 10:18:32;;;;;;;0.00;0.00;;;;;;;23.69;38.58;100258.16;4435492;32;32496;-86
2024/04/05 10:21:03;;;;;;;0.00;0.00;;;;;;;23.77;35.83;100254.72;4441602;32;33755;-86
2024/04/05 10:23:30;;;;;;;0.30;0.30;;;;;;;23.73;36.45;100258.69;4439571;32;33592;-86
2024/04/05 10:25:56;;;;;;;0.00;0.00;;;;;;;23.42;36.37;100255.22;4461382;32;34347;-86
2024/04/05 10:28:23;;;;;;;0.00;0.00;;;;;;;23.54;35.93;100248.72;4450242;32;35904;-86
2024/04/05 10:30:50;;;;;;;0.65;0.65;;;;;;;23.74;35.00;100244.25;4454382;32;34201;-86
2024/04/05 10:33:21;;;;;;;0.40;0.22;;;;;;;23.60;35.11;100242.78;4466503;32;34795;-87
2024/04/05 10:35:49;;;;;;;0.45;0.25;;;;;;;23.46;36.06;100245.88;4446548;32;33277;-87
2024/04/05 10:38:16;;;;;;;1.33;0.52;;;;;;;23.43;36.47;100246.12;4448331;32;34202;-87
2024/04/05 10:40:44;;;;;;;2.20;1.00;;;;;;;23.62;36.03;100243.47;4433573;32;32996;-87
2024/04/05 10:43:12;;;;;;;0.17;0.15;;;;;;;23.54;36.39;100254.09;4449070;32;34715;-87
2024/04/05 10:45:39;;;;;;;0.05;0.00;;;;;;;23.54;36.70;100248.72;4459302;32;33767;-87
2024/04/05 10:48:06;;;;;;;0.00;0.00;;;;;;;23.67;36.13;100252.03;4440455;32;33988;-87
2024/04/05 10:50:39;;;;;;;0.15;0.00;;;;;;;23.81;36.40;100239.97;4442806;32;34881;-87
2024/04/05 10:53:06;;;;;;;1.25;0.50;;;;;;;23.55;35.79;100239.66;4440253;32;33749;-86
2024/04/05 10:55:32;;;;;;;0.85;0.80;;;;;;;23.33;35.83;100242.56;4454372;32;32592;-87
2024/04/05 10:58:03;;;;;;;0.20;0.20;;;;;;;24.08;36.47;100241.97;4454225;32;32773;-87
2024/04/05 11:00:30;;;;;;;0.03;0.03;;;;;;;24.30;36.13;100227.28;4453300;32;33297;-87
2024/04/05 11:02:57;;;;;;;0.00;0.00;;;;;;;24.44;34.15;100231.44;4451820;32;34265;-88
2024/04/05 11:05:24;;;;;;;0.20;0.20;;;;;;;24.12;34.34;100232.59;4440239;32;34973;-87
2024/04/05 11:08:02;;;;;;;0.13;0.13;;;;;;;24.24;34.48;100230.59;4441149;32;32553;-88
2024/04/05 11:10:31;;;;;;;0.05;0.00;;;;;;;24.70;34.35;100223.56;4442439;32;33389;-87
2024/04/05 11:12:57;;;;;;;3.10;0.62;;;;;;;24.85;33.83;100229.31;4435482;32;33691;-87
2024/04/05 11:15:25;;;;;;;4.40;0.95;;;;;;;25.05;31.86;100239.03;4444879;32;32195;-87
2024/04/05 11:18:05;;;;;;;0.00;0.00;;;;;;;24.83;31.84;100225.91;4451360;32;34359;-87
2024/04/05 11:20:34;;;;;;;0.43;0.43;;;;;;;24.90;31.93;100221.62;4453124;32;34398;-87
2024/04/05 11:23:21;;;;;;;0.00;0.00;;;;;;;25.15;32.58;100229.06;4426955;32;32659;-87
2024/04/05 11:25:52;;;;;;;0.28;0.28;;;;;;;24.88;33.98;100234.44;4453008;32;32535;-87
2024/04/05 11:28:22;;;;;;;0.00;0.00;;;;;;;25.13;32.56;100228.38;4440996;32;33576;-87